PILOTS ONLINE: 484    ATC ONLINE: 101

KCDC

Cedar City Regional Airport

Location

IATA CDC
City Cedar City
Country  United States
Latitude 37° 42' 3" N
Longitude 113° 5' 56" W
Elevation 5622 ft
Type Medium Airport

Map

Weather

METAR
2014/09/30 16:53
KCDC 301653Z AUTO 00000KT 10SM CLR 15/03 A3006 RMK AO2 SLP129 T01500033
TAF
2014/09/30 18:45
TAF KCDC 301739Z 3018/0118 21008KT P6SM FEW090 SCT200 
     FM010300 19005KT P6SM SCT060 BKN100 
     FM011000 35008KT P6SM SCT050 BKN080

Runways

02/20 8653 ft / 150 ft
08/26 4822 ft / 60 ft

Outbound flights

Callsign Flying to Pilot ATD/STD ETA Aircraft

Inbound flights

Callsign Flying from Pilot ATD ETA Aircraft